createdAt,value
2023-04-24T00:01:32.446Z,64.36
2023-04-24T00:04:05.258Z,64.40
2023-04-24T00:06:38.523Z,64.64
2023-04-24T00:09:12.508Z,64.45
2023-04-24T00:11:45.514Z,64.39
2023-04-24T00:14:18.079Z,64.70
2023-04-24T00:16:51.057Z,64.54
2023-04-24T00:19:23.693Z,64.46
2023-04-24T00:21:56.448Z,64.36
2023-04-24T00:24:30.460Z,64.24
2023-04-24T00:27:03.529Z,64.65
2023-04-24T00:29:36.121Z,64.50
2023-04-24T00:32:08.755Z,64.42
2023-04-24T00:34:41.463Z,64.35
2023-04-24T00:37:14.136Z,64.30
2023-04-24T00:39:48.093Z,64.63
2023-04-24T00:42:21.443Z,64.82
2023-04-24T00:44:54.083Z,64.69
2023-04-24T00:47:27.380Z,64.92
2023-04-24T00:50:00.068Z,64.69
2023-04-24T00:52:33.167Z,64.62
2023-04-24T00:55:08.072Z,64.85
2023-04-24T00:57:41.125Z,64.75
2023-04-24T01:00:14.448Z,64.72
2023-04-24T01:02:49.774Z,64.53
2023-04-24T01:05:24.875Z,64.95
2023-04-24T01:07:57.594Z,64.64
2023-04-24T01:10:32.214Z,64.79
2023-04-24T01:13:04.965Z,64.67
2023-04-24T01:15:37.698Z,64.89
2023-04-24T01:18:11.011Z,64.90
2023-04-24T01:20:45.134Z,64.81
2023-04-24T01:23:19.245Z,64.96
2023-04-24T01:25:52.414Z,64.94
2023-04-24T01:28:25.159Z,64.64
2023-04-24T01:30:58.197Z,64.85
2023-04-24T01:33:30.870Z,64.77
2023-04-24T01:36:03.568Z,64.81
2023-04-24T01:38:37.760Z,65.01
2023-04-24T01:41:10.431Z,64.67
2023-04-24T01:43:42.975Z,64.88
2023-04-24T01:46:15.606Z,64.59
2023-04-24T01:48:48.370Z,64.99
2023-04-24T01:51:21.037Z,64.96
2023-04-24T01:53:55.308Z,65.12
2023-04-24T01:56:30.881Z,65.00
2023-04-24T01:59:04.534Z,65.07
2023-04-24T02:01:37.945Z,65.20
2023-04-24T02:04:11.066Z,65.21
2023-04-24T02:06:43.744Z,64.99
2023-04-24T02:09:17.907Z,65.49
2023-04-24T02:11:50.830Z,65.27
2023-04-24T02:14:24.380Z,65.14
2023-04-24T02:17:25.812Z,65.46
2023-04-24T02:20:03.557Z,65.55
2023-04-24T02:22:36.153Z,65.10
2023-04-24T02:25:12.614Z,65.33
2023-04-24T02:27:45.178Z,65.34
2023-04-24T02:30:20.829Z,65.31
2023-04-24T02:33:00.758Z,64.95
2023-04-24T02:35:38.993Z,65.64
2023-04-24T02:38:12.057Z,65.46
2023-04-24T02:40:46.192Z,65.10
2023-04-24T02:43:18.823Z,64.94
2023-04-24T02:45:51.518Z,65.17
2023-04-24T02:48:24.660Z,65.12
2023-04-24T02:50:58.520Z,65.06
2023-04-24T02:53:32.166Z,65.08
2023-04-24T02:56:06.309Z,65.40
2023-04-24T02:58:38.931Z,65.33
2023-04-24T03:01:11.967Z,65.33
2023-04-24T03:03:44.821Z,65.31
2023-04-24T03:06:17.613Z,65.50
2023-04-24T03:08:50.209Z,65.44
2023-04-24T03:11:24.224Z,65.35
2023-04-24T03:13:57.030Z,65.96
2023-04-24T03:16:29.826Z,65.57
2023-04-24T03:19:02.456Z,65.91
2023-04-24T03:21:41.707Z,65.92
2023-04-24T03:24:14.344Z,66.02
2023-04-24T03:26:49.244Z,66.49
2023-04-24T03:29:45.296Z,66.07
2023-04-24T03:32:18.933Z,66.24
2023-04-24T03:34:52.769Z,66.10
2023-04-24T03:37:27.392Z,66.79
2023-04-24T03:40:11.626Z,66.72
2023-04-24T03:42:46.173Z,66.38
2023-04-24T03:45:18.910Z,66.39
2023-04-24T03:47:54.656Z,66.84
2023-04-24T03:50:27.680Z,67.03
2023-04-24T03:53:01.398Z,66.81
2023-04-24T03:55:42.930Z,66.86
2023-04-24T03:58:18.921Z,66.38
2023-04-24T04:00:52.220Z,66.68
2023-04-24T04:03:54.228Z,67.04
2023-04-24T04:06:31.672Z,66.86
2023-04-24T04:09:05.666Z,67.05
2023-04-24T04:11:38.327Z,66.62
2023-04-24T04:23:12.839Z,66.73
2023-04-24T04:25:58.510Z,66.74
2023-04-24T04:28:43.765Z,66.72
2023-04-24T04:31:16.440Z,66.58
2023-04-24T04:37:14.395Z,66.92
2023-04-24T04:40:15.643Z,67.03
2023-04-24T04:43:06.108Z,67.32
2023-04-24T04:45:46.235Z,66.82
2023-04-24T04:49:19.582Z,66.42
2023-04-24T04:51:59.650Z,66.57
2023-04-24T04:54:33.776Z,66.72
2023-04-24T04:57:07.729Z,66.97
2023-04-24T04:59:42.332Z,66.99
2023-04-24T05:02:20.384Z,66.79
2023-04-24T05:04:53.366Z,66.58
2023-04-24T05:07:27.830Z,67.14
2023-04-24T05:10:02.513Z,67.19
2023-04-24T05:12:35.704Z,67.20
2023-04-24T05:15:09.751Z,67.35
2023-04-24T05:17:43.024Z,67.00
2023-04-24T05:20:16.651Z,66.75
2023-04-24T05:22:50.826Z,66.93
2023-04-24T05:25:25.212Z,67.13
2023-04-24T05:28:02.537Z,66.61
2023-04-24T05:30:35.291Z,66.68
2023-04-24T05:33:08.145Z,66.87
2023-04-24T05:35:46.631Z,67.11
2023-04-24T05:38:23.804Z,66.91
2023-04-24T05:40:56.660Z,66.85
2023-04-24T05:43:52.590Z,66.63
2023-04-24T05:46:28.381Z,66.61
2023-04-24T05:49:17.530Z,66.90
2023-04-24T05:51:51.361Z,66.75
2023-04-24T05:54:26.945Z,67.10
2023-04-24T05:57:26.219Z,67.18
2023-04-24T06:00:15.494Z,66.90
2023-04-24T06:02:55.864Z,66.60
2023-04-24T06:05:32.265Z,66.30
2023-04-24T06:09:05.194Z,66.90
2023-04-24T06:11:42.655Z,66.70
2023-04-24T06:14:34.233Z,66.40
2023-04-24T06:17:41.600Z,66.68
2023-04-24T06:20:19.892Z,66.68
2023-04-24T06:23:43.978Z,66.86
2023-04-24T06:26:17.687Z,66.75
2023-04-24T06:28:53.395Z,66.72
2023-04-24T06:31:26.258Z,66.36
2023-04-24T06:34:01.013Z,66.79
2023-04-24T06:36:35.513Z,66.72
2023-04-24T06:39:08.194Z,66.80
2023-04-24T06:41:40.960Z,66.39
2023-04-24T06:44:17.763Z,66.74
2023-04-24T06:46:50.367Z,66.57
2023-04-24T06:49:22.964Z,66.82
2023-04-24T06:51:55.617Z,66.27
2023-04-24T06:54:28.199Z,66.31
2023-04-24T06:57:01.648Z,66.29
2023-04-24T06:59:35.790Z,66.57
2023-04-24T07:02:08.631Z,66.46
2023-04-24T07:04:43.329Z,66.41
2023-04-24T07:07:16.718Z,66.10
2023-04-24T07:09:49.775Z,66.04
2023-04-24T07:12:22.874Z,66.28
2023-04-24T07:14:56.903Z,66.38
2023-04-24T07:17:29.827Z,66.09
2023-04-24T07:20:02.578Z,66.23
2023-04-24T07:22:35.127Z,65.97
2023-04-24T07:25:08.647Z,66.09
2023-04-24T07:27:41.313Z,65.95
2023-04-24T07:30:15.574Z,66.12
2023-04-24T07:32:48.267Z,65.80
2023-04-24T07:35:21.165Z,65.91
2023-04-24T07:37:53.813Z,65.75
2023-04-24T07:40:26.539Z,66.01
2023-04-24T07:42:59.174Z,66.17
2023-04-24T07:45:37.229Z,65.88
2023-04-24T07:48:14.151Z,65.52
2023-04-24T07:50:47.798Z,65.84
2023-04-24T07:53:20.433Z,65.69
2023-04-24T07:55:53.070Z,66.13
2023-04-24T07:58:25.806Z,66.11
2023-04-24T08:00:59.809Z,65.38
2023-04-24T08:03:33.948Z,65.37
2023-04-24T08:06:07.349Z,65.47
2023-04-24T08:08:39.986Z,65.44
2023-04-24T08:11:12.672Z,65.43
2023-04-24T08:13:45.385Z,65.59
2023-04-24T08:16:19.788Z,65.26
2023-04-24T08:18:52.540Z,65.44
2023-04-24T08:21:25.174Z,64.90
2023-04-24T08:23:57.870Z,65.17
2023-04-24T08:26:31.253Z,64.99
2023-04-24T08:29:03.866Z,64.67
2023-04-24T08:31:38.123Z,64.32
2023-04-24T08:34:11.191Z,64.45
2023-04-24T08:36:47.515Z,64.50
2023-04-24T08:39:20.644Z,64.76
2023-04-24T08:41:54.748Z,64.65
2023-04-24T08:44:29.638Z,64.93
2023-04-24T08:47:25.967Z,64.90
2023-04-24T08:49:59.813Z,64.24
2023-04-24T08:52:32.774Z,64.76
2023-04-24T08:55:07.807Z,64.11
2023-04-24T08:57:41.339Z,64.27
2023-04-24T09:00:14.485Z,64.33
2023-04-24T09:02:50.971Z,64.33
2023-04-24T09:07:58.964Z,64.08
2023-04-24T09:10:32.431Z,64.19
2023-04-24T09:13:05.471Z,63.59
2023-04-24T09:15:38.405Z,64.01
2023-04-24T09:18:12.803Z,63.94
2023-04-24T09:21:02.355Z,63.74
2023-04-24T09:23:35.610Z,63.44
2023-04-24T09:26:10.790Z,63.46
2023-04-24T09:28:45.279Z,62.82
2023-04-24T09:31:23.090Z,62.66
2023-04-24T09:34:01.978Z,62.83
2023-04-24T09:36:38.189Z,62.76
2023-04-24T09:39:14.807Z,62.54
2023-04-24T09:41:49.994Z,62.28
2023-04-24T09:44:26.686Z,62.23
2023-04-24T09:47:00.092Z,62.14
2023-04-24T09:49:36.123Z,61.80
2023-04-24T09:52:12.284Z,61.57
2023-04-24T09:54:55.036Z,61.96
2023-04-24T09:57:28.258Z,61.58
2023-04-24T10:00:01.126Z,61.66
2023-04-24T10:02:34.357Z,61.40
2023-04-24T10:05:09.500Z,61.25
2023-04-24T10:07:50.085Z,61.33
2023-04-24T10:10:30.637Z,61.49
2023-04-24T10:13:04.037Z,61.52
2023-04-24T10:15:37.053Z,61.91
2023-04-24T10:18:12.550Z,61.43
2023-04-24T10:20:46.913Z,61.82
2023-04-24T10:23:21.512Z,61.88
2023-04-24T10:25:54.610Z,61.94
2023-04-24T10:28:29.044Z,61.59
2023-04-24T10:31:08.032Z,61.66
2023-04-24T10:33:49.558Z,61.75
2023-04-24T10:36:27.943Z,61.15
2023-04-24T10:39:02.071Z,61.50
2023-04-24T10:41:36.188Z,60.33
2023-04-24T10:44:11.953Z,60.83
2023-04-24T10:46:55.302Z,61.07
2023-04-24T10:49:31.949Z,61.83
2023-04-24T10:52:11.598Z,61.21
2023-04-24T10:54:48.129Z,61.05
2023-04-24T10:57:32.504Z,60.82
2023-04-24T11:00:18.746Z,60.79
2023-04-24T11:02:54.897Z,60.52
2023-04-24T11:05:46.529Z,60.34
2023-04-24T11:08:25.844Z,60.01
2023-04-24T11:10:59.683Z,59.88
2023-04-24T11:13:51.751Z,61.02
2023-04-24T11:16:30.368Z,60.56
2023-04-24T11:19:03.940Z,60.42
2023-04-24T11:21:43.910Z,61.13
2023-04-24T11:24:31.880Z,59.66
2023-04-24T11:27:09.002Z,59.61
2023-04-24T11:29:43.093Z,59.85
2023-04-24T11:32:26.003Z,60.46
2023-04-24T11:34:59.435Z,60.61
2023-04-24T11:37:35.752Z,60.40
2023-04-24T11:40:10.868Z,59.69
2023-04-24T11:42:44.710Z,60.68
2023-04-24T11:45:18.137Z,60.84
2023-04-24T11:47:51.178Z,58.55
2023-04-24T11:50:24.634Z,59.60
2023-04-24T11:52:57.780Z,59.30
2023-04-24T11:55:31.758Z,58.58
2023-04-24T11:58:04.243Z,59.93
2023-04-24T12:00:39.369Z,59.43
2023-04-24T12:03:13.786Z,59.42
2023-04-24T12:05:47.038Z,60.63
2023-04-24T12:08:29.010Z,58.72
2023-04-24T12:11:05.623Z,58.90
2023-04-24T12:16:32.917Z,59.25
2023-04-24T12:19:07.019Z,58.44
2023-04-24T12:21:39.838Z,59.62
2023-04-24T12:24:12.623Z,58.98
2023-04-24T12:26:46.595Z,58.83
2023-04-24T12:29:27.669Z,59.60
2023-04-24T12:32:00.217Z,59.01
2023-04-24T12:34:33.652Z,58.52
2023-04-24T12:37:11.835Z,58.52
2023-04-24T12:39:47.269Z,58.40
2023-04-24T12:42:27.575Z,59.79
2023-04-24T12:45:01.573Z,59.51
2023-04-24T12:47:34.597Z,58.19
2023-04-24T12:50:08.103Z,58.11
2023-04-24T12:52:42.996Z,59.53
2023-04-24T12:55:15.745Z,58.49
2023-04-24T12:57:49.622Z,58.57
2023-04-24T13:00:22.586Z,58.39
2023-04-24T13:02:55.479Z,58.29
2023-04-24T13:05:28.820Z,59.14
2023-04-24T13:08:01.595Z,59.40
2023-04-24T13:10:34.260Z,59.08
2023-04-24T13:13:08.298Z,58.86
2023-04-24T13:15:43.880Z,59.43
2023-04-24T13:18:16.846Z,59.85
2023-04-24T13:20:49.761Z,59.11
2023-04-24T13:23:23.892Z,60.09
2023-04-24T13:25:58.572Z,59.35
2023-04-24T13:28:32.905Z,59.53
2023-04-24T13:31:05.910Z,59.35
2023-04-24T13:33:38.636Z,58.91
2023-04-24T13:36:11.151Z,57.92
2023-04-24T13:38:43.758Z,58.23
2023-04-24T13:41:16.435Z,58.49
2023-04-24T13:43:50.488Z,58.34
2023-04-24T13:46:23.173Z,58.90
2023-04-24T13:48:56.113Z,58.15
2023-04-24T13:51:28.889Z,58.84
2023-04-24T13:54:01.741Z,59.13
2023-04-24T13:56:34.512Z,58.61
2023-04-24T14:02:11.376Z,57.53
2023-04-24T14:13:42.699Z,57.98
2023-04-24T14:16:29.951Z,57.53
2023-04-24T15:25:49.285Z,56.78
2023-04-24T15:28:22.794Z,56.49
2023-04-24T15:30:55.729Z,54.83
2023-04-24T15:33:28.591Z,55.19
2023-04-24T15:36:01.312Z,55.56
2023-04-24T15:38:34.135Z,55.93
2023-04-24T15:41:08.622Z,55.93
2023-04-24T15:43:42.407Z,55.72
2023-04-24T15:46:15.451Z,56.77
2023-04-24T15:48:48.870Z,56.07
2023-04-24T15:54:30.460Z,56.38
2023-04-24T15:57:04.708Z,56.21
2023-04-24T15:59:42.089Z,56.28
2023-04-24T16:02:19.177Z,55.97
2023-04-24T16:04:53.170Z,56.53
2023-04-24T16:07:26.096Z,56.71
2023-04-24T16:10:03.013Z,55.96
2023-04-24T16:12:41.923Z,56.18
2023-04-24T16:15:37.761Z,55.27
2023-04-24T16:18:11.865Z,55.64
2023-04-24T16:20:44.878Z,55.15
2023-04-24T16:23:17.692Z,56.23
2023-04-24T16:25:51.704Z,54.95
2023-04-24T16:28:30.577Z,56.03
2023-04-24T16:31:13.655Z,55.43
2023-04-24T16:33:49.110Z,55.17
2023-04-24T16:36:28.877Z,55.91
2023-04-24T16:39:13.349Z,56.03
2023-04-24T16:41:46.052Z,56.38
2023-04-24T16:44:28.184Z,56.16
2023-04-24T16:47:05.573Z,56.68
2023-04-24T16:49:38.522Z,56.39
2023-04-24T16:52:12.011Z,56.52
2023-04-24T16:54:50.069Z,56.83
2023-04-24T16:57:23.285Z,56.58
2023-04-24T17:00:05.217Z,56.71
2023-04-24T17:02:41.089Z,56.51
2023-04-24T17:05:13.875Z,56.44
2023-04-24T19:08:39.664Z,59.10
2023-04-24T19:11:14.889Z,58.94
2023-04-24T19:13:50.445Z,58.84
2023-04-24T19:16:26.217Z,59.07
2023-04-24T19:19:18.784Z,59.05
2023-04-24T19:21:54.740Z,59.02
2023-04-24T20:13:37.167Z,60.54
2023-04-24T20:17:10.910Z,59.87
2023-04-24T20:20:27.803Z,60.31
2023-04-24T20:23:14.253Z,60.33
2023-04-24T20:25:54.978Z,60.33
2023-04-24T20:28:41.305Z,60.58
2023-04-24T20:31:14.838Z,60.50
2023-04-24T20:33:47.722Z,60.99
2023-04-24T20:36:21.928Z,60.36
2023-04-24T20:38:54.545Z,60.65
2023-04-24T20:41:27.359Z,60.90
2023-04-24T20:44:00.181Z,60.69
2023-04-24T20:46:32.917Z,60.92
2023-04-24T20:49:05.559Z,60.99
2023-04-24T20:51:39.447Z,61.20
2023-04-24T20:54:12.411Z,60.67
2023-04-24T20:56:45.221Z,61.12
2023-04-24T20:59:25.585Z,61.31
2023-04-24T21:02:06.736Z,61.13
2023-04-24T21:04:39.953Z,61.45
2023-04-24T21:07:20.959Z,61.21
2023-04-24T21:09:53.760Z,61.21
2023-04-24T21:12:26.382Z,61.17
2023-04-24T21:14:59.949Z,61.08
2023-04-24T21:17:35.129Z,61.12
2023-04-24T21:20:08.458Z,60.92
2023-04-24T21:22:42.452Z,61.28
2023-04-24T21:25:14.971Z,61.40
2023-04-24T21:27:48.035Z,61.07
2023-04-24T21:30:24.249Z,60.95
2023-04-24T21:33:03.531Z,60.98
2023-04-24T21:35:36.801Z,60.86
2023-04-24T21:38:10.770Z,60.68
2023-04-24T21:40:43.466Z,61.29
2023-04-24T21:43:17.960Z,61.28
2023-04-24T21:45:52.421Z,61.20
2023-04-24T21:48:24.949Z,61.57
2023-04-24T21:50:57.542Z,61.42
2023-04-24T21:56:22.096Z,61.26
2023-04-24T21:58:54.819Z,61.56
2023-04-24T22:01:27.693Z,61.52
2023-04-24T22:04:00.611Z,61.58
2023-04-24T22:06:34.654Z,61.90
2023-04-24T22:09:08.569Z,61.37
2023-04-24T22:11:43.311Z,61.81
2023-04-24T22:14:16.085Z,61.47
2023-04-24T22:16:50.261Z,61.28
2023-04-24T22:19:23.258Z,61.72
2023-04-24T22:21:55.836Z,61.68
2023-04-24T22:24:29.824Z,61.71
2023-04-24T22:27:04.721Z,61.85
2023-04-24T22:29:37.355Z,61.71
2023-04-24T22:32:10.021Z,61.88
2023-04-24T22:34:42.741Z,61.60
2023-04-24T22:37:15.787Z,61.48
2023-04-24T22:39:49.739Z,62.25
2023-04-24T22:42:22.275Z,61.66
2023-04-24T22:44:55.109Z,62.14
2023-04-24T22:47:27.744Z,61.50
2023-04-24T22:50:00.533Z,61.72
2023-04-24T22:52:33.711Z,61.90
2023-04-24T22:55:08.312Z,61.76
2023-04-24T22:57:41.121Z,61.87
2023-04-24T23:00:14.078Z,61.94
2023-04-24T23:02:46.990Z,62.15
2023-04-24T23:05:21.976Z,62.23
2023-04-24T23:07:54.639Z,62.23
2023-04-24T23:10:28.728Z,62.38
2023-04-24T23:13:01.366Z,61.94
2023-04-24T23:15:34.741Z,62.48
2023-04-24T23:18:07.436Z,62.12
2023-04-24T23:20:41.172Z,62.48
2023-04-24T23:23:14.112Z,62.36
2023-04-24T23:25:48.246Z,62.66
2023-04-24T23:28:20.913Z,61.90
2023-04-24T23:30:53.608Z,61.80
2023-04-24T23:33:26.468Z,62.02
2023-04-24T23:35:59.503Z,62.44
2023-04-24T23:38:39.928Z,62.16
2023-04-24T23:41:23.271Z,62.05
2023-04-24T23:43:55.782Z,61.87
2023-04-24T23:46:28.553Z,62.12
2023-04-24T23:49:04.022Z,62.15
2023-04-24T23:51:36.873Z,62.52
2023-04-24T23:54:09.740Z,62.85
2023-04-24T23:56:43.668Z,63.14
2023-04-24T23:59:16.328Z,62.67
